Independence of the Seas — C6WW4 — position and weather

sailwx.info

Track history (hours):
 
Tides and Currents Weather Stations Pressure Air Temp Water Temp Dewpoint Dewpoint Depression Visibility Wind Speed Wind Dir Waves Ship Positions

Independence of the Seas

Last reported at 2017-Jan-21 14:25 UTC. Time now 2017-Jan-21 15:34 UTC.
Position N 20°36' W 086°55'.

Length 339 m; draft 8.8 m.

Type: Passenger vessel. MMSI: 309374000.

Date/timePositionNaut miles runAvg speedWind from/ knotsBaromVisibWave heightAir tempDewpointWater temp
2017-Jan-21 14:25N 20°36' W 086°55'33212.6
2017-Jan-20 12:00N 24°00' W 082°12'15414.8 180 / 71018.910.8 22.921.525.0
2017-Jan-20 01:33N 25°39' W 080°01'1413.6
2017-Jan-20 00:33N 25°52' W 080°02'1313.1
2017-Jan-19 23:33N 26°05' W 080°03'4 3.4
2017-Jan-19 22:30N 26°05' W 080°07'0 0.0
2017-Jan-19 21:30N 26°05' W 080°07'0 0.0
2017-Jan-19 20:33N 26°05' W 080°07'0 0.0
2017-Jan-19 19:33N 26°05' W 080°07'0 0.0
2017-Jan-19 18:33N 26°05' W 080°07'0 0.0
2017-Jan-19 17:33N 26°05' W 080°07'0 0.0
2017-Jan-19 16:21N 26°05' W 080°07'0 0.0
2017-Jan-19 15:33N 26°05' W 080°07'0 0.0
2017-Jan-19 14:33N 26°05' W 080°07'0 0.0
2017-Jan-19 13:24N 26°05' W 080°07'0 0.0
2017-Jan-19 12:24N 26°05' W 080°07'0 0.3
2017-Jan-19 11:34N 26°06' W 080°07'9 8.7
2017-Jan-19 10:33N 26°02' W 079°58'1413.6
2017-Jan-19 09:33N 25°50' W 079°50'1817.7
2017-Jan-19 08:33N 25°33' W 079°50'13015.2
2017-Jan-19 00:00N 24°00' W 081°30'378 7.9 080 / 101022.9 23.018.326.0
2017-Jan-17 00:00N 20°18' W 087°00'1120.2 090 / 171015.910.8 24.722.227.0
2017-Jan-16 23:27N 20°29' W 086°60'1 1.4
2017-Jan-16 22:33N 20°29' W 086°59'0 0.0
2017-Jan-16 21:33N 20°29' W 086°59'0 0.0
2017-Jan-16 20:33N 20°29' W 086°59'0 0.0
2017-Jan-16 19:33N 20°29' W 086°59'0 0.0
2017-Jan-16 18:33N 20°29' W 086°59'0 0.0
2017-Jan-16 17:33N 20°29' W 086°59'0 0.0
2017-Jan-16 16:33N 20°29' W 086°59'0 0.0
2017-Jan-16 15:33N 20°29' W 086°59'0 0.0
2017-Jan-16 14:33N 20°29' W 086°59'0 0.0
2017-Jan-16 13:33N 20°29' W 086°59'2 1.6
2017-Jan-16 12:33N 20°30' W 086°59'10 9.5
2017-Jan-16 11:33N 20°39' W 086°53'13711.8
2017-Jan-16 00:00N 22°06' W 085°00'34314.4 110 / 201020.9 25.318.626.0
2017-Jan-15 00:08N 25°33' W 080°01'914.9
2017-Jan-14 23:34N 25°41' W 080°02'1515.5
2017-Jan-14 22:34N 25°57' W 080°02'10 9.5
2017-Jan-14 21:33N 26°05' W 080°07'0 0.0
2017-Jan-14 20:27N 26°05' W 080°07'0 0.0
2017-Jan-14 19:27N 26°05' W 080°07'0 0.0
2017-Jan-14 18:15N 26°05' W 080°07'0 0.0
2017-Jan-14 17:24N 26°05' W 080°07'0 0.0
2017-Jan-14 16:30N 26°05' W 080°07'0 0.0
2017-Jan-14 15:33N 26°05' W 080°07'0 0.0
2017-Jan-14 14:33N 26°05' W 080°07'0 0.0
2017-Jan-14 13:33N 26°05' W 080°07'0 0.0
2017-Jan-14 12:33N 26°05' W 080°07'1 0.6
2017-Jan-14 11:33N 26°06' W 080°06'1414.3
2017-Jan-14 10:34N 25°54' W 079°58'  
Track history (hours):
 
Tides and Currents Weather Stations Pressure Air Temp Water Temp Dewpoint Dewpoint Depression Visibility Wind Speed Wind Dir Waves Ship Positions

Independence of the Seas

Last reported at 2017-Jan-21 14:25 UTC. Time now 2017-Jan-21 15:34 UTC.
Position N 20°36' W 086°55'.

Length 339 m; draft 8.8 m.

Type: Passenger vessel. MMSI: 309374000.

Date/timePositionNaut miles runAvg speedWind from/ knotsBaromVisibWave heightAir tempDewpointWater temp
2017-Jan-21 14:25N 20°36' W 086°55'33212.6
2017-Jan-20 12:00N 24°00' W 082°12'15414.8 180 / 71018.910.8 22.921.525.0
2017-Jan-20 01:33N 25°39' W 080°01'1413.6
2017-Jan-20 00:33N 25°52' W 080°02'1313.1
2017-Jan-19 23:33N 26°05' W 080°03'4 3.4
2017-Jan-19 22:30N 26°05' W 080°07'0 0.0
2017-Jan-19 21:30N 26°05' W 080°07'0 0.0
2017-Jan-19 20:33N 26°05' W 080°07'0 0.0
2017-Jan-19 19:33N 26°05' W 080°07'0 0.0
2017-Jan-19 18:33N 26°05' W 080°07'0 0.0
2017-Jan-19 17:33N 26°05' W 080°07'0 0.0
2017-Jan-19 16:21N 26°05' W 080°07'0 0.0
2017-Jan-19 15:33N 26°05' W 080°07'0 0.0
2017-Jan-19 14:33N 26°05' W 080°07'0 0.0
2017-Jan-19 13:24N 26°05' W 080°07'0 0.0
2017-Jan-19 12:24N 26°05' W 080°07'0 0.3
2017-Jan-19 11:34N 26°06' W 080°07'9 8.7
2017-Jan-19 10:33N 26°02' W 079°58'1413.6
2017-Jan-19 09:33N 25°50' W 079°50'1817.7
2017-Jan-19 08:33N 25°33' W 079°50'13015.2
2017-Jan-19 00:00N 24°00' W 081°30'378 7.9 080 / 101022.9 23.018.326.0
2017-Jan-17 00:00N 20°18' W 087°00'1120.2 090 / 171015.910.8 24.722.227.0
2017-Jan-16 23:27N 20°29' W 086°60'1 1.4
2017-Jan-16 22:33N 20°29' W 086°59'0 0.0
2017-Jan-16 21:33N 20°29' W 086°59'0 0.0
2017-Jan-16 20:33N 20°29' W 086°59'0 0.0
2017-Jan-16 19:33N 20°29' W 086°59'0 0.0
2017-Jan-16 18:33N 20°29' W 086°59'0 0.0
2017-Jan-16 17:33N 20°29' W 086°59'0 0.0
2017-Jan-16 16:33N 20°29' W 086°59'0 0.0
2017-Jan-16 15:33N 20°29' W 086°59'0 0.0
2017-Jan-16 14:33N 20°29' W 086°59'0 0.0
2017-Jan-16 13:33N 20°29' W 086°59'2 1.6
2017-Jan-16 12:33N 20°30' W 086°59'10 9.5
2017-Jan-16 11:33N 20°39' W 086°53'13711.8
2017-Jan-16 00:00N 22°06' W 085°00'34314.4 110 / 201020.9 25.318.626.0
2017-Jan-15 00:08N 25°33' W 080°01'914.9
2017-Jan-14 23:34N 25°41' W 080°02'1515.5
2017-Jan-14 22:34N 25°57' W 080°02'10 9.5
2017-Jan-14 21:33N 26°05' W 080°07'0 0.0
2017-Jan-14 20:27N 26°05' W 080°07'0 0.0
2017-Jan-14 19:27N 26°05' W 080°07'0 0.0
2017-Jan-14 18:15N 26°05' W 080°07'0 0.0
2017-Jan-14 17:24N 26°05' W 080°07'0 0.0
2017-Jan-14 16:30N 26°05' W 080°07'0 0.0
2017-Jan-14 15:33N 26°05' W 080°07'0 0.0
2017-Jan-14 14:33N 26°05' W 080°07'0 0.0
2017-Jan-14 13:33N 26°05' W 080°07'0 0.0
2017-Jan-14 12:33N 26°05' W 080°07'1 0.6
2017-Jan-14 11:33N 26°06' W 080°06'1414.3
2017-Jan-14 10:34N 25°54' W 079°58'  

Dump ship's entire track history